Details From KSHL - Sheldon Muni
To KSPB - Scappoose Industrial Airpark
Flight Number -
Tags Generated
Created
Modified
Stats Distance 1,162 nm / 2,153 km
Max Altitude 0 ft / 0 m
Waypoints 7
Social Downloads 0
Likes 0
Share VATSIM

Download

Looking for another format? Having issues loading an existing format? Contact us
Advertisement - Login to hide

Notes

Generated

Route

KSHL 11581 KD90U RANEY 10091 DMBOR KSPB

ID Type Via Altitude Latitude Longitude Leg Dist Tot Dist Heading (true) Name
O KSHL APT - 0 ft / 0 m 43.21363˚ -95.83670˚ - 0 nm - -
11581 FIX - 0 ft / 0 m 44.28196˚ -101.45184˚ 251 nm 251 nm 287° / 283° -
KD90U FIX - 0 ft / 0 m 45.00000˚ -106.00000˚ 199 nm 450 nm 284° / 281° -
RANEY FIX - 0 ft / 0 m 45.51642˚ -111.32637˚ 227 nm 678 nm 280° / 276° -
10091 FIX - 0 ft / 0 m 45.78762˚ -116.96504˚ 237 nm 915 nm 276° / 272° -
DMBOR FIX - 0 ft / 0 m 45.79069˚ -122.36147˚ 225 nm 1141 nm 272° / 268° -
O KSPB APT - 0 ft / 0 m 45.77789˚ -122.86379˚ 21 nm 1162 nm 268° / 268° -

Altitude Profile

Advertisement - Login to hide

Weather


0- 5 10 15 20 25 30 35+ Temperature / ° C

Clouds and Precipitation
Forecast for 2017-12-13 00:00 UTC. Updated 44 minutes ago

Ground ~20,000 ft ~40,000 ft Winds

KSHL

Details ICAO KSHL
Name SHELDON MUNI
Region United States
Timezone America/Chicago (UTC-6.0)
Stats Elevation 1,419 ft / 433 m (AMSL)
Location 43.208388° -95.833427°
Runways 1
Magnetic Variation 2.387° E

METAR

KSHL 121955Z AUTO 23010G16KT 10SM CLR 02/M03 A3003 RMK AO2

Decode

TAF

Not found

Departure Runways

ID Width Length Bearing (true) Bearing (mag) Surface Threshold Offset Overrun Length
15 75 ft / 23 m 4,200 ft / 1,280 m 155.51° 153.12° Concrete 0 ft / 0 m 0 ft / 0 m
33 75 ft / 23 m 4,200 ft / 1,280 m 335.51° 333.12° Concrete 0 ft / 0 m 0 ft / 0 m

KSPB

Details ICAO KSPB (SPB)
Name SCAPPOOSE INDUSTRIAL AIRPARK
Region United States
Timezone America/Los_Angeles (UTC-8.0)
Stats Elevation 58 ft / 18 m (AMSL)
Location 45.771035° -122.861825°
Runways 1
Magnetic Variation 15.383° E

METAR

KSPB 121953Z AUTO 14003KT 10SM OVC085 04/M02 A3048 RMK AO2 SLP324 T00391017

Decode

TAF

Not found

Destination Runways

ID Width Length Bearing (true) Bearing (mag) Surface Threshold Offset Overrun Length
15 98 ft / 30 m 5,105 ft / 1,556 m 168.68° 153.30° Asphalt 0 ft / 0 m 0 ft / 0 m
33 98 ft / 30 m 5,105 ft / 1,556 m 348.69° 333.31° Asphalt 0 ft / 0 m 16 ft / 5 m

Approach Navaids

Runway Type Ident Frequency Range Bearing (true) Bearing (mag) Slope Elevation
15 Localiser IFKO 111.10 MHz 18 nm / 33 km 168.69° 153.30° - 58 ft / 18 m (AMSL)
15 DME IFKO 111.10 MHz 18 nm / 33 km - - - 38 ft / 12 m (AMSL)